Stinson Municipal Airport
KSSF : now visible

Airfield :











YOU CAN JOIN US ON...

 
LOGIN :

Register | Disclaimer

   EN    FR    IT 

 









Legend :    VFR   Marginal VFR   IFR   Intensive IFR   Very Intensive IFR
Visi :
Ceiling :
>= 8 km
>= 3000ft
5 to 8 km
1000 to 3000 ft
1500m to 5 km
500 to 1000 ft
800 to 1500m
200 to 500 ft
< 800m
< 200 ft
Symbols :   Thunderstorms  Fog  Heavy snow  Heavy precipitations  Wind > 20 kt






- Airport Elevation : 577 ft


KSSF - Stinson Municipal

CURRENT METAR :
  • 170253Z 00000KT 10SM CLR 13/13 A2992 RMK AO2 SLP129 T01330133 52002

EXPIRED METARs :
  • 170153Z 00000KT 10SM CLR 16/14 A2991 RMK AO2 SLP127 T01610144
  • 170053Z 00000KT 10SM CLR 18/14 A2991 RMK AO2 SLP127 T01780144

TAF KSSF
Valid from the 17 at 00:00 until the 18 at 00:00 UTC


162335Z 1700/1724 18005KT P6SM BKN200
FM170600 VRB04KT 4SM BR BKN005
FM170700 VRB03KT 1/2SM FG OVC002
FM171600 19005KT 2SM BR OVC003
FM171700 19006KT 6SM BR BKN006
FM171900 19007KT P6SM BKN016
FM172100 18007KT P6SM BKN060



MET'MAP, your aeronautical weather chart ! - Copyright ORBIFLY December 2007 - Disclaimer

ORBIFLY MET'MAP TEAM :

Programming & Development : Alexandra Zaïnal
Concept & original design : Baudouin d'Aumeries
Assistance for programming : Marc-Olivier Méhu
Technical & hardware support : Manuel Goepfert

Contact : metmap@orbifly.com




SOURCES & CREDITS :

   NOAA       Earth
Advisory